Time;durP1;ratioP1;P1;durP2;ratioP2;P2;SDS_P1;SDS_P2;PMS_P1;PMS_P2;Temp;Humidity;BMP_temperature;BMP_pressure;BME280_temperature;BME280_humidity;BME280_pressure;Samples;Min_cycle;Max_cycle;Signal;HPM_P1;HPM_P2
2021/10/23 00:01:30;;;;;;;;;15.75;11.00;;;;;12.25;70.21;102368.69;5078882;28;46278;-74
2021/10/23 00:03:56;;;;;;;;;8.33;8.33;;;;;12.27;70.33;102380.22;5078925;28;45358;-73
2021/10/23 00:06:21;;;;;;;;;14.00;11.00;;;;;12.28;70.04;102365.22;5078981;28;45814;-74
2021/10/23 00:08:47;;;;;;;;;12.33;10.00;;;;;12.33;70.16;102371.53;5059942;28;52781;-73
2021/10/23 00:11:12;;;;;;;;;11.00;9.00;;;;;12.36;69.82;102371.66;5078358;28;46610;-74
2021/10/23 00:13:37;;;;;;;;;10.00;8.33;;;;;12.40;69.62;102372.59;5078988;28;45375;-74
2021/10/23 00:16:03;;;;;;;;;10.00;9.00;;;;;12.42;69.61;102373.56;5078336;28;53203;-74
2021/10/23 00:18:28;;;;;;;;;8.00;6.00;;;;;12.42;69.44;102371.81;5075152;28;45606;-73
2021/10/23 00:20:54;;;;;;;;;10.67;6.00;;;;;12.46;69.48;102372.78;5070456;28;61719;-73
2021/10/23 00:23:19;;;;;;;;;9.00;8.00;;;;;12.48;69.35;102382.56;5062485;28;58392;-74
2021/10/23 00:25:44;;;;;;;;;11.00;8.00;;;;;12.51;69.30;102382.63;5066719;28;45706;-73
2021/10/23 00:28:10;;;;;;;;;7.00;4.67;;;;;12.52;69.03;102379.16;5062930;28;49862;-75
2021/10/23 00:30:35;;;;;;;;;5.00;5.00;;;;;12.55;68.96;102376.56;5078301;28;58316;-73
2021/10/23 00:33:03;;;;;;;;;8.00;6.00;;;;;12.58;68.86;102384.63;5078201;28;45563;-73
2021/10/23 00:35:29;;;;;;;;;7.33;7.33;;;;;12.62;68.91;102384.69;5069707;28;45422;-74
2021/10/23 00:37:55;;;;;;;;;9.33;8.00;;;;;12.62;69.16;102382.94;5076884;28;45381;-73
2021/10/23 00:40:20;;;;;;;;;9.00;8.00;;;;;12.63;68.88;102390.06;5063808;28;46963;-73
2021/10/23 00:42:46;;;;;;;;;9.00;8.00;;;;;12.65;68.74;102377.72;5057902;28;45420;-74
2021/10/23 00:45:11;;;;;;;;;11.67;8.00;;;;;12.67;68.78;102377.75;5057583;28;54109;-73
2021/10/23 00:47:37;;;;;;;;;9.00;9.00;;;;;12.59;68.44;102364.31;5059403;28;45274;-74
2021/10/23 00:50:03;;;;;;;;;9.00;6.00;;;;;12.67;68.54;102376.00;5058403;28;46690;-73
2021/10/23 00:52:28;;;;;;;;;8.33;6.67;;;;;12.67;68.54;102383.97;5071359;28;45316;-75
2021/10/23 00:54:54;;;;;;;;;7.67;7.67;;;;;12.68;68.59;102375.19;5078076;28;46010;-72
2021/10/23 00:57:20;;;;;;;;;8.67;5.00;;;;;12.68;68.41;102376.94;5078497;28;45265;-74
2021/10/23 00:59:45;;;;;;;;;4.33;4.33;;;;;12.67;68.32;102377.75;5077445;28;46528;-73
2021/10/23 01:02:10;;;;;;;;;6.00;5.00;;;;;12.66;68.39;102376.88;5077854;28;45496;-73
2021/10/23 01:04:36;;;;;;;;;7.00;5.33;;;;;12.64;68.28;102368.00;5077590;28;48284;-73
2021/10/23 01:07:01;;;;;;;;;5.00;5.00;;;;;12.67;67.86;102376.00;5059594;28;45366;-73
2021/10/23 01:09:27;;;;;;;;;9.67;9.00;;;;;12.63;68.06;102367.97;5077223;28;45521;-73
2021/10/23 01:11:54;;;;;;;;;5.67;5.33;;;;;12.66;68.21;102376.88;5069586;28;45370;-73
2021/10/23 01:14:21;;;;;;;;;10.00;5.00;;;;;12.62;68.42;102367.03;5070942;28;45433;-73
2021/10/23 01:16:46;;;;;;;;;6.67;6.67;;;;;12.67;68.47;102372.47;5077702;28;45200;-73
2021/10/23 01:19:12;;;;;;;;;6.67;6.67;;;;;12.66;68.50;102371.56;5060980;28;47314;-73
2021/10/23 01:21:38;;;;;;;;;9.00;7.33;;;;;12.67;68.62;102368.06;5077742;28;45334;-73
2021/10/23 01:24:07;;;;;;;;;11.00;7.67;;;;;12.66;68.28;102362.72;5077505;28;45414;-74
2021/10/23 01:26:33;;;;;;;;;10.00;6.00;;;;;12.64;68.53;102362.69;5077541;28;45347;-75
2021/10/23 01:28:58;;;;;;;;;5.00;5.00;;;;;12.66;68.36;102363.63;5072598;28;47566;-74
2021/10/23 01:31:28;;;;;;;;;10.00;10.00;;;;;12.60;68.55;102355.50;5056933;28;52661;-74
2021/10/23 01:33:55;;;;;;;;;10.00;8.67;;;;;12.57;68.34;102355.44;5063947;28;45488;-74
2021/10/23 01:36:20;;;;;;;;;8.00;8.00;;;;;12.61;68.61;102352.00;5019673;28;45467;-73
2021/10/23 01:38:46;;;;;;;;;8.33;7.67;;;;;12.53;68.53;102349.16;4988150;28;46312;-74
2021/10/23 01:41:11;;;;;;;;;8.00;8.00;;;;;12.58;68.64;102346.63;4982751;28;45371;-72
2021/10/23 01:43:37;;;;;;;;;11.00;8.00;;;;;12.55;68.63;102358.03;4994061;28;45493;-74
2021/10/23 01:46:03;;;;;;;;;6.00;4.67;;;;;12.47;68.66;102333.09;5050564;28;45450;-74
2021/10/23 01:48:28;;;;;;;;;8.00;6.00;;;;;12.51;68.65;102348.19;5006767;28;47081;-74
2021/10/23 01:50:54;;;;;;;;;5.67;5.67;;;;;12.49;68.71;102341.97;4987750;28;45399;-74
2021/10/23 01:53:19;;;;;;;;;9.33;6.00;;;;;12.47;68.58;102349.00;5057851;28;45483;-74
2021/10/23 01:55:45;;;;;;;;;5.00;4.00;;;;;12.46;68.78;102343.63;5077444;28;45528;-73
2021/10/23 01:58:11;;;;;;;;;6.67;5.67;;;;;12.42;68.58;102345.31;5077089;28;46612;-74
2021/10/23 02:00:36;;;;;;;;;9.33;5.33;;;;;12.31;68.62;102325.59;5030060;28;52035;-74
2021/10/23 02:03:02;;;;;;;;;12.00;8.00;;;;;12.44;68.90;102348.91;4993768;28;45164;-74
2021/10/23 02:05:27;;;;;;;;;8.00;6.33;;;;;12.43;68.90;102355.06;5036409;28;45410;-74
2021/10/23 02:07:52;;;;;;;;;9.00;5.00;;;;;12.43;68.88;102339.16;5076737;28;46416;-73
2021/10/23 02:10:18;;;;;;;;;7.00;5.00;;;;;12.44;68.77;102342.69;5076573;28;53250;-74
2021/10/23 02:12:43;;;;;;;;;5.00;5.00;;;;;12.39;68.82;102333.72;5076962;28;45294;-75
2021/10/23 02:15:09;;;;;;;;;8.00;5.00;;;;;12.43;68.83;102335.63;5048634;28;45336;-74
2021/10/23 02:17:34;;;;;;;;;10.00;5.67;;;;;12.43;68.89;102330.31;4987787;28;51206;-74
2021/10/23 02:20:00;;;;;;;;;4.33;4.33;;;;;12.45;68.85;102323.28;5047590;28;45225;-74
2021/10/23 02:22:25;;;;;;;;;9.00;5.00;;;;;12.45;68.52;102328.59;4993949;28;45411;-74
2021/10/23 02:24:51;;;;;;;;;8.00;4.67;;;;;12.45;68.79;102318.91;4993722;28;47933;-74
2021/10/23 02:27:16;;;;;;;;;8.00;5.33;;;;;12.44;68.56;102314.47;4993287;28;45767;-74
2021/10/23 02:29:42;;;;;;;;;4.33;4.33;;;;;12.43;68.82;102315.31;5022826;28;45260;-74
2021/10/23 02:32:07;;;;;;;;;5.00;5.00;;;;;12.43;68.79;102319.72;5077176;28;45404;-74
2021/10/23 02:34:32;;;;;;;;;6.67;5.33;;;;;12.45;68.79;102325.94;5025414;28;45209;-74
2021/10/23 02:36:58;;;;;;;;;9.67;7.67;;;;;12.42;68.74;102323.22;4993452;28;45441;-74
2021/10/23 02:39:23;;;;;;;;;5.00;5.00;;;;;12.42;68.55;102324.13;5013516;28;45475;-74
2021/10/23 02:41:49;;;;;;;;;8.00;5.67;;;;;12.42;68.99;102331.19;5058423;28;45359;-74
2021/10/23 02:44:14;;;;;;;;;5.00;5.00;;;;;12.42;68.91;102333.84;4993881;28;45555;-74
2021/10/23 02:46:40;;;;;;;;;11.00;6.33;;;;;12.39;68.95;102347.88;4992866;28;54619;-74
2021/10/23 02:49:07;;;;;;;;;11.33;6.00;;;;;12.37;68.87;102346.94;4987975;28;53127;-74
2021/10/23 02:51:33;;;;;;;;;4.67;4.67;;;;;12.37;68.99;102344.28;5017675;28;45686;-75
2021/10/23 02:53:59;;;;;;;;;11.00;6.33;;;;;12.37;68.97;102330.16;5027240;28;45206;-75
2021/10/23 02:56:25;;;;;;;;;5.33;4.00;;;;;12.36;68.80;102329.25;5070001;28;45874;-75
2021/10/23 02:58:51;;;;;;;;;6.33;6.33;;;;;12.32;68.96;102335.31;5076458;28;45381;-74
2021/10/23 03:01:16;;;;;;;;;9.00;6.00;;;;;12.37;68.89;102338.09;5079575;28;50984;-74
2021/10/23 03:03:42;;;;;;;;;6.33;5.33;;;;;12.37;69.07;102348.69;5062013;28;45308;-74
2021/10/23 03:06:07;;;;;;;;;5.00;5.00;;;;;12.37;68.86;102346.94;5051437;28;61893;-73
2021/10/23 03:08:33;;;;;;;;;5.00;5.00;;;;;12.34;69.09;102338.91;4996417;28;45322;-74
2021/10/23 03:10:58;;;;;;;;;8.67;5.33;;;;;12.39;68.92;102339.03;4995907;28;45298;-74
2021/10/23 03:13:24;;;;;;;;;8.00;5.67;;;;;12.40;68.97;102333.75;4996454;28;45357;-74
2021/10/23 03:15:51;;;;;;;;;9.00;5.00;;;;;12.40;68.81;102331.13;4995999;28;47447;-74
2021/10/23 03:18:16;;;;;;;;;5.67;5.67;;;;;12.43;68.92;102322.38;5026612;28;45256;-74
2021/10/23 03:20:42;;;;;;;;;5.33;5.33;;;;;12.43;68.96;102335.63;5079315;28;49286;-75
2021/10/23 03:23:07;;;;;;;;;5.00;5.00;;;;;12.45;68.53;102332.13;5079320;28;45465;-75
2021/10/23 03:25:32;;;;;;;;;5.33;5.33;;;;;12.45;68.85;102337.44;5024895;28;47237;-74
2021/10/23 03:27:58;;;;;;;;;8.67;6.67;;;;;12.45;68.53;102337.44;5012077;28;58364;-73
2021/10/23 03:30:23;;;;;;;;;4.00;4.00;;;;;12.46;68.67;102343.63;4996085;28;52948;-74
2021/10/23 03:32:49;;;;;;;;;5.00;5.00;;;;;12.46;68.66;102335.69;4995929;28;45296;-74
2021/10/23 03:35:14;;;;;;;;;6.67;4.67;;;;;12.46;68.57;102344.53;5062998;28;45969;-73
2021/10/23 03:37:39;;;;;;;;;4.00;4.00;;;;;12.47;68.50;102341.03;5058952;28;45620;-74
2021/10/23 03:40:06;;;;;;;;;4.00;4.00;;;;;12.50;68.28;102345.50;4995762;28;48102;-74
2021/10/23 03:42:31;;;;;;;;;9.33;7.67;;;;;12.51;68.60;102334.94;5067012;28;45466;-74
2021/10/23 03:44:56;;;;;;;;;6.33;4.33;;;;;12.51;68.58;102334.94;5078824;28;58679;-74
2021/10/23 03:47:22;;;;;;;;;4.33;4.33;;;;;12.51;68.26;102331.41;5078615;28;53626;-74
2021/10/23 03:49:47;;;;;;;;;5.00;5.00;;;;;12.52;68.30;102331.47;4981931;28;45285;-74
2021/10/23 03:52:13;;;;;;;;;8.00;4.00;;;;;12.49;68.26;102317.22;5050610;28;45513;-74
2021/10/23 03:54:39;;;;;;;;;9.33;4.00;;;;;12.50;68.18;102322.56;5037607;28;47230;-74
2021/10/23 03:57:04;;;;;;;;;5.33;5.00;;;;;12.54;68.28;102331.50;5079165;28;45406;-74
2021/10/23 03:59:30;;;;;;;;;5.33;5.33;;;;;12.50;68.32;102319.91;5078907;28;50097;-74
2021/10/23 04:01:57;;;;;;;;;7.33;5.00;;;;;12.54;68.30;102326.19;5016940;28;45454;-74
2021/10/23 04:04:22;;;;;;;;;8.00;4.67;;;;;12.54;68.32;102329.75;4995575;28;46725;-74
2021/10/23 04:06:48;;;;;;;;;7.67;5.33;;;;;12.54;67.98;102327.09;4995240;28;45500;-74
2021/10/23 04:09:13;;;;;;;;;6.00;4.67;;;;;12.51;68.18;102319.06;4995545;28;45367;-74
2021/10/23 04:11:39;;;;;;;;;5.33;5.00;;;;;12.55;68.14;102315.63;4994844;28;45155;-73
2021/10/23 04:14:04;;;;;;;;;5.00;5.00;;;;;12.55;68.09;102320.94;4995584;28;47292;-74
2021/10/23 04:16:30;;;;;;;;;5.67;4.00;;;;;12.56;68.19;102322.72;4995396;28;45260;-74
2021/10/23 04:18:55;;;;;;;;;9.00;6.00;;;;;12.56;67.70;102314.78;5018449;28;45671;-74
2021/10/23 04:21:20;;;;;;;;;4.00;4.00;;;;;12.58;67.59;102326.34;5024271;28;45623;-74
2021/10/23 04:23:46;;;;;;;;;8.33;5.00;;;;;12.59;67.98;102320.16;4995294;28;45574;-74
2021/10/23 04:26:11;;;;;;;;;5.00;4.00;;;;;12.57;67.69;102318.34;4977481;28;45302;-74
2021/10/23 04:28:37;;;;;;;;;4.33;4.33;;;;;12.61;67.83;102325.50;4995151;28;45409;-74
2021/10/23 04:31:02;;;;;;;;;4.00;4.00;;;;;12.61;67.88;102322.84;5054944;28;45538;-74
2021/10/23 04:33:28;;;;;;;;;6.00;4.00;;;;;12.59;67.85;102317.53;5029876;28;45336;-74
2021/10/23 04:35:53;;;;;;;;;5.67;5.00;;;;;12.62;67.79;102322.00;5016435;28;45481;-75
2021/10/23 04:38:19;;;;;;;;;4.33;4.00;;;;;12.64;67.52;102316.75;5078482;28;47320;-74
2021/10/23 04:40:44;;;;;;;;;6.67;5.33;;;;;12.63;67.46;102326.47;5005943;28;45552;-74
2021/10/23 04:43:10;;;;;;;;;4.33;4.00;;;;;12.63;67.74;102322.91;5045374;28;47409;-74
2021/10/23 04:45:35;;;;;;;;;7.33;4.00;;;;;12.61;67.45;102328.16;5044247;28;53470;-76
2021/10/23 04:48:00;;;;;;;;;5.67;4.00;;;;;12.61;67.88;102324.59;4977018;28;54171;-74
2021/10/23 04:50:27;;;;;;;;;5.67;4.00;;;;;12.61;67.60;102330.81;5000425;28;45412;-75
2021/10/23 04:52:52;;;;;;;;;5.33;5.00;;;;;12.62;67.91;102332.59;5037655;28;47378;-74
2021/10/23 04:55:18;;;;;;;;;6.67;4.00;;;;;12.63;67.80;102328.22;5078034;28;45212;-74
2021/10/23 04:57:43;;;;;;;;;6.00;4.00;;;;;12.63;67.83;102328.22;5003899;28;45208;-75
2021/10/23 05:00:09;;;;;;;;;8.00;5.00;;;;;12.61;67.89;102327.25;4994412;28;54672;-74
2021/10/23 05:02:34;;;;;;;;;5.00;5.00;;;;;12.61;67.94;102330.81;4994941;28;46326;-74
2021/10/23 05:04:59;;;;;;;;;8.33;6.00;;;;;12.63;67.84;102330.88;4994131;28;52572;-74
2021/10/23 05:07:25;;;;;;;;;9.00;4.00;;;;;12.62;68.12;102332.59;5030627;28;52228;-74
2021/10/23 05:09:50;;;;;;;;;6.00;5.00;;;;;12.62;67.82;102335.25;5077566;28;48897;-74
2021/10/23 05:12:15;;;;;;;;;4.33;4.33;;;;;12.63;67.71;102339.72;5077678;28;52151;-75
2021/10/23 05:14:41;;;;;;;;;5.33;5.00;;;;;12.63;67.89;102336.16;5077418;28;51011;-74
2021/10/23 05:17:06;;;;;;;;;5.00;5.00;;;;;12.64;68.06;102345.91;5065533;28;54653;-74
2021/10/23 05:19:32;;;;;;;;;6.00;6.00;;;;;12.62;67.93;102340.53;4994809;28;45283;-74
2021/10/23 05:21:57;;;;;;;;;9.00;6.67;;;;;12.62;67.95;102348.50;4994386;28;46482;-76
2021/10/23 05:24:23;;;;;;;;;5.00;5.00;;;;;12.63;67.99;102346.75;4994876;28;45434;-74
2021/10/23 05:26:50;;;;;;;;;9.67;6.67;;;;;12.61;68.27;102345.81;4994305;28;45660;-75
2021/10/23 05:29:15;;;;;;;;;8.00;4.00;;;;;12.62;68.21;102339.66;5008978;28;45569;-74
2021/10/23 05:31:40;;;;;;;;;12.00;8.67;;;;;12.61;68.26;102338.75;5077442;28;46799;-75
2021/10/23 05:34:06;;;;;;;;;11.00;7.33;;;;;12.62;68.00;102339.66;5041079;28;45349;-74
2021/10/23 05:36:31;;;;;;;;;9.00;6.67;;;;;12.62;68.24;102332.59;5036715;28;54051;-74
2021/10/23 05:38:57;;;;;;;;;9.33;8.00;;;;;12.64;68.20;102336.19;5066626;28;52469;-74
2021/10/23 05:41:22;;;;;;;;;5.67;5.67;;;;;12.63;68.61;102346.75;5007141;28;47411;-74
2021/10/23 05:43:47;;;;;;;;;6.00;6.00;;;;;12.62;68.33;102340.53;5001882;27;45367;-74
2021/10/23 05:46:13;;;;;;;;;9.33;7.67;;;;;12.63;68.04;102338.81;4977809;28;46123;-75
2021/10/23 05:48:39;;;;;;;;;6.00;5.33;;;;;12.64;68.19;102343.25;4987687;28;45698;-74
2021/10/23 05:51:04;;;;;;;;;10.00;5.33;;;;;12.65;67.72;102340.63;4989672;28;46655;-75
2021/10/23 05:53:30;;;;;;;;;9.67;6.00;;;;;12.62;67.96;102331.69;4982265;28;45331;-74
2021/10/23 05:55:55;;;;;;;;;7.33;6.00;;;;;12.67;68.17;102341.56;4993317;28;45287;-75
2021/10/23 05:58:21;;;;;;;;;8.00;5.67;;;;;12.67;68.10;102346.84;4992971;28;45370;-81
2021/10/23 06:00:51;;;;;;;;;6.67;6.00;;;;;12.68;68.01;102345.13;4975478;28;46643;-78
2021/10/23 06:03:20;;;;;;;;;5.00;5.00;;;;;12.61;68.17;102333.44;4991934;28;45539;-80
2021/10/23 06:05:46;;;;;;;;;7.67;6.00;;;;;12.68;68.18;102351.34;4973284;28;45763;-77
2021/10/23 06:08:11;;;;;;;;;5.00;5.00;;;;;12.65;67.90;102340.63;4991836;28;45545;-75
2021/10/23 06:10:37;;;;;;;;;6.00;6.00;;;;;12.66;68.12;102350.38;4975314;28;45684;-75
2021/10/23 06:13:02;;;;;;;;;8.00;5.00;;;;;12.70;68.03;102348.72;4992670;28;54040;-74
2021/10/23 06:15:27;;;;;;;;;8.00;5.00;;;;;12.71;68.10;102358.44;4975982;28;48066;-73
2021/10/23 06:17:53;;;;;;;;;13.67;7.00;;;;;12.70;67.97;102352.25;4992870;28;51858;-73
2021/10/23 06:20:18;;;;;;;;;9.00;6.67;;;;;12.73;67.67;102356.72;4991569;28;56408;-76
2021/10/23 06:22:48;;;;;;;;;6.67;4.00;;;;;12.73;67.78;102357.66;5001762;28;54937;-74
2021/10/23 06:25:17;;;;;;;;;11.00;6.00;;;;;12.74;67.50;102354.13;4990931;27;45575;-74
2021/10/23 06:27:42;;;;;;;;;5.67;4.67;;;;;12.75;67.70;102362.97;4990346;28;45534;-73
2021/10/23 06:30:07;;;;;;;;;9.00;7.33;;;;;12.78;67.86;102365.69;4984546;28;54837;-74
2021/10/23 06:32:33;;;;;;;;;6.67;5.00;;;;;12.77;67.65;102366.56;4987843;28;62006;-74
2021/10/23 06:34:58;;;;;;;;;10.00;5.00;;;;;12.79;67.33;102378.13;4988625;28;53503;-74
2021/10/23 06:37:24;;;;;;;;;7.67;5.33;;;;;12.80;67.04;102378.16;4993536;28;53641;-73
2021/10/23 06:39:50;;;;;;;;;5.33;5.00;;;;;12.81;67.39;102379.94;4998822;28;61543;-74
2021/10/23 06:42:15;;;;;;;;;6.00;6.00;;;;;12.82;67.58;102386.13;5029508;28;45515;-73
2021/10/23 06:44:41;;;;;;;;;5.67;5.00;;;;;12.82;67.47;102386.13;5061451;28;49629;-74
2021/10/23 06:47:06;;;;;;;;;5.00;5.00;;;;;12.81;67.75;102385.25;4998447;28;45545;-74
2021/10/23 06:49:32;;;;;;;;;5.00;5.00;;;;;12.83;67.59;102379.97;5018071;28;57931;-74
2021/10/23 06:51:57;;;;;;;;;5.00;3.67;;;;;12.86;67.39;102393.31;4996139;28;45288;-73
2021/10/23 06:54:22;;;;;;;;;6.00;5.67;;;;;12.88;67.80;102396.91;4995938;28;55468;-73
2021/10/23 06:56:48;;;;;;;;;4.00;4.00;;;;;12.89;67.60;102397.78;4996315;28;45560;-74
2021/10/23 06:59:13;;;;;;;;;9.33;4.67;;;;;12.90;67.07;102396.97;4977108;28;46710;-74
2021/10/23 07:01:39;;;;;;;;;5.67;4.67;;;;;12.91;67.07;102399.63;5058021;28;53858;-74
2021/10/23 07:04:04;;;;;;;;;5.67;5.00;;;;;12.92;67.43;102406.72;5079455;28;51668;-73
2021/10/23 07:06:29;;;;;;;;;9.33;5.00;;;;;12.96;67.76;102410.38;4993427;28;50937;-74
2021/10/23 07:08:55;;;;;;;;;13.00;5.67;;;;;12.97;67.39;102415.72;4989247;28;47494;-73
2021/10/23 07:11:20;;;;;;;;;7.67;6.00;;;;;12.96;67.39;102416.56;4990720;28;48741;-77
2021/10/23 07:13:46;;;;;;;;;4.33;4.33;;;;;13.02;67.48;102421.13;5020859;28;45338;-73
2021/10/23 07:16:11;;;;;;;;;4.00;4.00;;;;;12.99;67.45;102405.13;4999228;28;45501;-75
2021/10/23 07:18:37;;;;;;;;;9.00;7.33;;;;;13.07;67.45;102427.47;4994701;28;46486;-73
2021/10/23 07:21:02;;;;;;;;;7.33;6.00;;;;;13.09;66.89;102428.38;5036912;28;45352;-73
2021/10/23 07:23:27;;;;;;;;;6.00;4.00;;;;;13.12;67.00;102436.44;4995349;28;45552;-73
2021/10/23 07:25:53;;;;;;;;;6.67;6.00;;;;;13.16;66.87;102445.38;4995249;28;45413;-74
2021/10/23 07:28:18;;;;;;;;;5.00;5.00;;;;;13.19;66.97;102432.19;4998374;28;46626;-74
2021/10/23 07:30:44;;;;;;;;;6.00;6.00;;;;;13.23;67.06;102440.28;4991248;28;51944;-74
2021/10/23 07:33:09;;;;;;;;;9.00;5.00;;;;;13.28;66.63;102443.06;5009208;28;45876;-75
2021/10/23 07:36:06;;;;;;;;;7.00;5.50;;;;;13.33;66.46;102447.63;5190094;22;45383;-75
2021/10/23 07:38:32;;;;;;;;;9.67;5.00;;;;;13.36;66.08;102447.69;5053884;28;45502;-73
2021/10/23 07:40:57;;;;;;;;;11.67;7.00;;;;;13.36;65.63;102446.81;5051915;28;54016;-73
2021/10/23 07:43:23;;;;;;;;;8.67;6.00;;;;;13.43;65.46;102461.16;5035079;28;46612;-73
2021/10/23 07:45:49;;;;;;;;;10.67;5.67;;;;;13.47;65.66;102460.34;5048825;28;47298;-74
2021/10/23 07:48:17;;;;;;;;;5.00;5.00;;;;;13.48;65.62;102464.81;5055643;28;46586;-73
2021/10/23 07:50:44;;;;;;;;;9.67;6.00;;;;;13.48;65.54;102454.19;5046808;28;45468;-71
2021/10/23 07:53:09;;;;;;;;;8.67;4.00;;;;;13.54;65.26;102465.84;5058646;28;45332;-73
2021/10/23 07:55:35;;;;;;;;;6.00;5.00;;;;;13.57;65.31;102470.31;5034754;28;53249;-73
2021/10/23 07:58:01;;;;;;;;;5.00;5.00;;;;;13.56;65.15;102472.09;5038069;28;46626;-73
2021/10/23 08:00:26;;;;;;;;;5.67;5.67;;;;;13.57;64.69;102470.31;5048618;28;45501;-73
2021/10/23 08:02:57;;;;;;;;;8.33;5.00;;;;;13.58;64.52;102475.69;5054360;28;45435;-73
2021/10/23 08:05:23;;;;;;;;;6.33;6.00;;;;;13.57;64.52;102470.31;5054029;28;45546;-72
2021/10/23 08:07:50;;;;;;;;;7.67;4.33;;;;;13.61;64.34;102470.44;5057731;28;46335;-72
2021/10/23 08:10:15;;;;;;;;;5.67;3.00;;;;;13.63;64.63;102466.09;5056532;28;45553;-73
2021/10/23 08:12:43;;;;;;;;;6.33;6.00;;;;;13.67;64.78;102472.34;5058435;28;45443;-73
2021/10/23 08:15:09;;;;;;;;;5.67;5.00;;;;;13.68;64.39;102479.44;5056183;28;45423;-73
2021/10/23 08:17:35;;;;;;;;;5.67;4.00;;;;;13.69;64.42;102477.69;5051615;28;47415;-73
2021/10/23 08:20:00;;;;;;;;;6.67;6.00;;;;;13.69;64.17;102485.66;5045400;28;45354;-72
2021/10/23 08:22:25;;;;;;;;;5.00;5.00;;;;;13.70;64.30;102471.53;5037734;28;47890;-73
2021/10/23 08:24:51;;;;;;;;;7.67;4.00;;;;;13.72;64.27;102481.31;5037929;28;51021;-73
2021/10/23 08:27:17;;;;;;;;;7.67;5.00;;;;;13.77;63.80;102470.81;5043676;28;45738;-73
2021/10/23 08:29:44;;;;;;;;;7.33;5.67;;;;;13.81;63.86;102465.63;5057313;28;54743;-73
2021/10/23 08:32:10;;;;;;;;;6.00;5.33;;;;;13.85;63.75;102467.50;5035860;28;45487;-73
2021/10/23 08:34:35;;;;;;;;;5.00;5.00;;;;;13.93;63.64;102469.44;5029694;28;45369;-73
2021/10/23 08:37:01;;;;;;;;;5.00;5.00;;;;;13.97;63.59;102474.84;5038649;28;47327;-72
2021/10/23 08:39:27;;;;;;;;;9.00;5.00;;;;;14.02;63.70;102475.84;5057783;28;45328;-73
2021/10/23 08:41:53;;;;;;;;;5.00;5.00;;;;;14.03;63.42;102469.69;5057704;28;45594;-72
2021/10/23 08:44:19;;;;;;;;;4.00;4.00;;;;;14.10;63.39;102478.69;5039831;28;49853;-73
2021/10/23 08:46:45;;;;;;;;;4.00;4.00;;;;;14.13;63.30;102469.03;5057689;28;46580;-73
2021/10/23 08:49:10;;;;;;;;;8.00;7.00;;;;;14.21;63.39;102484.22;5019861;28;45384;-73
2021/10/23 08:51:35;;;;;;;;;4.33;4.33;;;;;14.24;62.63;102479.00;5003475;28;45365;-72
2021/10/23 08:54:01;;;;;;;;;7.67;5.00;;;;;14.23;63.17;102477.22;5038065;28;45277;-73
2021/10/23 08:56:26;;;;;;;;;6.67;3.33;;;;;14.17;62.87;102464.69;5049775;28;46405;-73
2021/10/23 08:58:52;;;;;;;;;6.33;4.00;;;;;14.25;62.88;102479.03;5038533;28;45475;-73
2021/10/23 09:01:17;;;;;;;;;7.33;6.00;;;;;14.30;62.74;102482.69;5057280;28;45352;-73
2021/10/23 09:03:43;;;;;;;;;6.00;6.00;;;;;14.31;63.12;102480.91;5055251;28;45542;-73
2021/10/23 09:06:28;;;;;;;;;8.33;6.00;;;;;14.29;63.15;102475.59;5049169;28;46023;-73
2021/10/23 09:09:00;;;;;;;;;3.67;3.00;;;;;14.30;62.83;102489.75;5037145;28;45344;-72
2021/10/23 09:11:30;;;;;;;;;7.00;2.33;;;;;14.32;62.90;102486.25;5037096;28;45360;-73
2021/10/23 09:13:55;;;;;;;;;5.33;4.00;;;;;14.36;63.02;102482.81;5037322;28;45383;-73
2021/10/23 09:16:21;;;;;;;;;5.67;4.33;;;;;14.35;62.64;102474.81;5036595;28;46377;-73
2021/10/23 09:18:48;;;;;;;;;6.00;5.00;;;;;14.36;62.79;102473.94;5041247;28;45323;-73
2021/10/23 09:21:18;;;;;;;;;5.00;4.67;;;;;14.32;62.70;102467.66;5057065;28;45416;-72
2021/10/23 09:23:44;;;;;;;;;5.33;3.67;;;;;14.39;62.89;102479.34;5056794;28;45281;-73
2021/10/23 09:26:27;;;;;;;;;6.67;5.00;;;;;14.35;63.11;102472.16;5056281;28;46690;-73
2021/10/23 09:29:11;;;;;;;;;7.00;3.00;;;;;14.40;62.92;102481.13;5053810;28;45335;-72
2021/10/23 09:31:39;;;;;;;;;6.00;4.00;;;;;14.35;63.21;102481.03;5041350;28;45380;-74
2021/10/23 09:34:05;;;;;;;;;6.33;5.00;;;;;14.42;62.97;102480.28;5036029;28;45529;-74
2021/10/23 09:36:30;;;;;;;;;5.33;4.33;;;;;14.45;63.24;102478.56;5043434;28;61341;-73
2021/10/23 09:39:00;;;;;;;;;6.00;6.00;;;;;14.50;62.94;102477.84;5037454;28;54534;-74
2021/10/23 09:41:26;;;;;;;;;6.67;5.00;;;;;14.56;62.73;102475.31;5057013;28;45399;-72
2021/10/23 09:44:12;;;;;;;;;8.67;4.33;;;;;14.60;62.84;102471.84;5019713;28;45444;-73
2021/10/23 09:46:52;;;;;;;;;7.00;4.00;;;;;14.62;62.89;102474.53;5049930;28;46301;-72
2021/10/23 09:49:18;;;;;;;;;5.00;5.00;;;;;14.63;62.47;102474.56;5053127;28;45417;-74
2021/10/23 09:51:43;;;;;;;;;6.00;5.00;;;;;14.63;61.50;102468.34;5035546;28;45626;-74
2021/10/23 09:54:14;;;;;;;;;5.00;4.00;;;;;14.62;63.21;102464.78;5036150;28;52192;-74
2021/10/23 09:56:40;;;;;;;;;8.67;5.00;;;;;14.67;62.78;102467.56;5038084;28;46601;-74
2021/10/23 09:59:10;;;;;;;;;7.00;4.00;;;;;14.66;63.08;102464.00;5021594;28;45490;-74
2021/10/23 10:01:45;;;;;;;;;8.33;6.00;;;;;14.71;62.85;102469.41;5038919;28;45520;-73
2021/10/23 10:04:14;;;;;;;;;9.00;7.00;;;;;14.69;62.87;102457.84;5050430;28;45657;-74
2021/10/23 10:06:46;;;;;;;;;6.00;6.00;;;;;14.75;62.51;102473.00;5036285;28;46583;-74
2021/10/23 10:09:12;;;;;;;;;5.00;5.00;;;;;14.65;62.57;102453.34;5055626;28;45531;-73
2021/10/23 10:11:38;;;;;;;;;3.67;3.67;;;;;14.77;62.61;102465.97;5056468;28;45333;-74
2021/10/23 10:14:07;;;;;;;;;7.33;5.00;;;;;14.79;62.55;102464.25;5056658;28;45485;-73
2021/10/23 10:16:33;;;;;;;;;7.00;6.00;;;;;14.82;62.68;102465.22;5053065;28;46738;-72
2021/10/23 10:18:58;;;;;;;;;6.67;5.00;;;;;14.85;62.39;102467.91;5052983;28;45612;-74
2021/10/23 10:21:24;;;;;;;;;9.00;7.00;;;;;14.84;62.03;102476.75;5044108;28;45464;-73
2021/10/23 10:23:52;;;;;;;;;7.00;6.00;;;;;14.82;61.99;102466.97;5021542;28;45291;-74
2021/10/23 10:26:21;;;;;;;;;7.00;7.00;;;;;14.80;62.39;102466.03;5047143;28;46409;-73
2021/10/23 10:29:09;;;;;;;;;7.33;5.67;;;;;14.78;62.52;102463.34;5050755;28;45238;-74
2021/10/23 10:32:03;;;;;;;;;7.67;7.67;;;;;14.80;62.26;102476.66;5047437;28;45186;-73
2021/10/23 10:40:15;;;;;;;;;10.00;7.67;;;;;14.80;62.22;102466.91;5053160;28;45478;-74
2021/10/23 10:42:50;;;;;;;;;5.33;5.00;;;;;14.83;62.28;102461.69;5054242;28;45455;-74
2021/10/23 10:45:43;;;;;;;;;9.00;8.00;;;;;14.87;62.87;102465.31;5053321;28;45530;-75
2021/10/23 10:48:35;;;;;;;;;13.67;8.00;;;;;14.90;63.02;102463.56;5053310;28;47640;-75
2021/10/23 10:51:07;;;;;;;;;10.33;7.00;;;;;14.94;61.89;102461.88;5039532;28;45731;-80
2021/10/23 10:53:54;;;;;;;;;10.33;7.67;;;;;14.92;62.11;102445.00;5052498;28;45582;-78
2021/10/23 10:56:19;;;;;;;;;8.33;7.33;;;;;14.99;61.97;102454.00;5054658;28;45510;-76
2021/10/23 10:58:48;;;;;;;;;6.67;6.00;;;;;15.00;61.98;102456.69;5053382;28;46098;-78
2021/10/23 11:01:23;;;;;;;;;9.00;6.67;;;;;15.02;61.89;102440.72;5053412;28;45419;-76
2021/10/23 11:03:51;;;;;;;;;9.33;6.33;;;;;15.04;62.34;102442.56;5050440;28;45558;-76
2021/10/23 11:06:34;;;;;;;;;12.00;8.33;;;;;15.06;61.89;102442.59;5055155;28;45383;-74
2021/10/23 11:09:12;;;;;;;;;9.33;7.67;;;;;15.08;61.85;102441.75;5051175;28;47386;-77
2021/10/23 11:11:43;;;;;;;;;7.67;6.00;;;;;15.12;62.44;102442.69;5052700;28;45426;-77
2021/10/23 11:14:35;;;;;;;;;5.00;5.00;;;;;15.09;62.45;102438.22;5056137;28;45452;-76
2021/10/23 11:17:01;;;;;;;;;8.33;7.67;;;;;15.16;62.36;102440.13;5045301;28;45556;-77
2021/10/23 11:19:33;;;;;;;;;8.00;5.33;;;;;15.22;62.16;102439.34;5051405;28;45939;-76
2021/10/23 11:22:09;;;;;;;;;35.33;30.00;;;;;15.29;62.31;102432.38;5057077;28;45475;-77
2021/10/23 11:24:41;;;;;;;;;54.25;40.00;;;;;15.31;61.77;102422.63;5055650;28;45419;-77
2021/10/23 11:27:07;;;;;;;;;46.50;38.00;;;;;15.45;61.95;102434.44;5054054;28;45535;-76
2021/10/23 11:29:32;;;;;;;;;12.33;11.33;;;;;15.54;61.99;102423.00;5054287;28;60146;-76